Time;durP1;ratioP1;P1;durP2;ratioP2;P2;SDS_P1;SDS_P2;PMS_P1;PMS_P2;Temp;Humidity;BMP_temperature;BMP_pressure;BME280_temperature;BME280_humidity;BME280_pressure;Samples;Min_cycle;Max_cycle;Signal;HPM_P1;HPM_P2
2022/03/28 00:01:42;;;;;;;14.73;10.67;;;5.70;99.60;;;;;;4985883;28;20218;-76
2022/03/28 00:04:09;;;;;;;15.87;11.60;;;5.70;99.60;;;;;;4984672;28;20204;-76
2022/03/28 00:06:36;;;;;;;18.20;12.50;;;5.60;99.90;;;;;;4985982;28;20221;-76
2022/03/28 00:09:05;;;;;;;15.47;12.13;;;5.60;99.90;;;;;;4985948;28;20206;-76
2022/03/28 00:11:32;;;;;;;19.20;12.17;;;5.50;99.90;;;;;;4983565;28;20198;-76
2022/03/28 00:13:58;;;;;;;16.27;11.77;;;5.50;99.90;;;;;;4985721;28;20193;-76
2022/03/28 00:16:25;;;;;;;15.90;12.27;;;5.40;99.90;;;;;;4984576;28;20226;-76
2022/03/28 00:18:53;;;;;;;13.63;11.77;;;5.50;99.90;;;;;;4985762;28;20514;-76
2022/03/28 00:21:20;;;;;;;14.80;11.60;;;5.50;99.90;;;;;;5000038;28;20272;-77
2022/03/28 00:23:47;;;;;;;12.50;11.10;;;5.50;99.90;;;;;;4985616;28;20200;-76
2022/03/28 00:26:14;;;;;;;13.97;11.03;;;5.60;99.90;;;;;;4985132;28;20283;-76
2022/03/28 00:28:41;;;;;;;14.60;11.90;;;5.50;99.90;;;;;;4978584;28;20201;-76
2022/03/28 00:31:08;;;;;;;13.93;10.83;;;5.50;99.90;;;;;;4989536;28;20200;-76
2022/03/28 00:33:34;;;;;;;16.27;10.93;;;5.50;99.90;;;;;;4982210;28;20209;-76
2022/03/28 00:36:03;;;;;;;16.97;12.70;;;5.60;99.90;;;;;;4980794;28;20221;-76
2022/03/28 00:38:30;;;;;;;13.33;11.23;;;5.60;99.90;;;;;;4987951;28;20256;-76
2022/03/28 00:40:56;;;;;;;15.73;11.70;;;5.60;99.90;;;;;;4981554;28;20730;-76
2022/03/28 00:43:23;;;;;;;13.33;11.47;;;5.50;99.90;;;;;;4988374;28;20208;-76
2022/03/28 00:45:50;;;;;;;13.57;10.73;;;5.50;99.90;;;;;;4981841;28;20245;-76
2022/03/28 00:48:17;;;;;;;14.67;11.13;;;5.40;99.90;;;;;;4990054;28;20201;-76
2022/03/28 00:50:44;;;;;;;15.30;11.10;;;5.40;99.90;;;;;;4985026;28;20212;-77
2022/03/28 00:53:14;;;;;;;13.60;12.13;;;5.40;99.90;;;;;;4999591;28;20720;-77
2022/03/28 00:55:42;;;;;;;15.40;12.90;;;5.40;99.90;;;;;;4984971;28;20221;-76
2022/03/28 00:58:09;;;;;;;19.07;13.07;;;5.40;99.90;;;;;;4983583;28;20276;-76
2022/03/28 01:00:36;;;;;;;19.97;12.50;;;5.40;99.90;;;;;;4973114;28;20583;-76
2022/03/28 01:03:03;;;;;;;18.73;12.20;;;5.40;99.90;;;;;;5000181;28;20201;-76
2022/03/28 01:05:31;;;;;;;15.17;11.87;;;5.30;99.90;;;;;;4993064;28;20248;-76
2022/03/28 01:08:00;;;;;;;15.27;11.37;;;5.30;99.90;;;;;;4992721;28;20190;-76
2022/03/28 01:10:30;;;;;;;14.97;11.03;;;5.30;99.90;;;;;;4987166;28;20670;-76
2022/03/28 01:12:58;;;;;;;13.63;10.93;;;5.30;99.90;;;;;;4984959;28;20203;-76
2022/03/28 01:15:25;;;;;;;14.83;11.43;;;5.20;99.90;;;;;;4979846;28;20230;-76
2022/03/28 01:18:05;;;;;;;12.83;11.17;;;5.10;99.90;;;;;;4996505;28;20666;-76
2022/03/28 01:20:34;;;;;;;14.57;11.33;;;5.00;99.90;;;;;;4981255;28;20196;-76
2022/03/28 01:23:02;;;;;;;13.23;11.40;;;4.90;99.90;;;;;;4981416;28;20529;-76
2022/03/28 01:25:30;;;;;;;18.13;12.83;;;4.90;99.90;;;;;;4982148;28;20218;-76
2022/03/28 01:27:58;;;;;;;15.90;12.47;;;4.90;99.90;;;;;;4978855;28;20219;-76
2022/03/28 01:30:27;;;;;;;15.60;11.20;;;5.00;99.90;;;;;;4982471;28;20642;-76
2022/03/28 01:32:54;;;;;;;14.43;12.00;;;5.00;99.90;;;;;;4981676;28;20264;-76
2022/03/28 01:35:30;;;;;;;14.63;12.03;;;5.00;99.90;;;;;;4979582;28;20600;-76
2022/03/28 01:37:57;;;;;;;14.63;11.50;;;4.90;99.90;;;;;;4996252;28;20252;-76
2022/03/28 01:40:25;;;;;;;24.33;12.53;;;4.90;99.90;;;;;;4982809;28;20202;-76
2022/03/28 01:42:52;;;;;;;16.00;12.03;;;4.90;99.90;;;;;;4975160;28;20189;-76
2022/03/28 01:45:19;;;;;;;17.63;12.67;;;4.80;99.90;;;;;;4982198;28;20193;-76
2022/03/28 01:47:46;;;;;;;14.30;11.73;;;4.80;99.90;;;;;;4978441;28;20223;-76
2022/03/28 01:50:14;;;;;;;15.80;11.77;;;4.70;99.90;;;;;;4976931;28;20641;-76
2022/03/28 01:52:40;;;;;;;16.37;13.27;;;4.60;99.90;;;;;;4988019;28;20682;-76
2022/03/28 01:55:10;;;;;;;18.07;13.20;;;4.60;99.90;;;;;;4983922;28;20245;-76
2022/03/28 01:57:38;;;;;;;14.77;11.90;;;4.60;99.90;;;;;;4973394;28;20706;-76
2022/03/28 02:00:07;;;;;;;14.43;11.53;;;4.60;99.90;;;;;;4979500;28;20252;-76
2022/03/28 02:02:36;;;;;;;16.80;12.57;;;4.60;99.90;;;;;;4983434;28;20193;-76
2022/03/28 02:05:03;;;;;;;15.40;11.33;;;4.60;99.90;;;;;;4980660;28;20222;-76
2022/03/28 02:07:30;;;;;;;15.73;12.67;;;4.60;99.90;;;;;;5011290;23;20244;-79
2022/03/28 02:09:57;;;;;;;18.03;13.67;;;4.70;99.90;;;;;;4986538;28;20200;-80
2022/03/28 02:12:24;;;;;;;18.60;12.27;;;4.70;99.90;;;;;;4984486;28;20683;-79
2022/03/28 02:14:52;;;;;;;16.53;13.03;;;4.70;99.90;;;;;;4984831;28;20264;-80
2022/03/28 02:17:19;;;;;;;16.47;12.23;;;4.70;99.90;;;;;;4986017;28;20228;-79
2022/03/28 02:19:46;;;;;;;14.77;12.67;;;4.70;99.90;;;;;;4987734;28;20674;-79
2022/03/28 02:22:13;;;;;;;17.10;12.97;;;4.70;99.90;;;;;;4986962;28;20194;-79
2022/03/28 02:24:39;;;;;;;13.67;12.03;;;4.70;99.90;;;;;;4990136;28;20233;-80
2022/03/28 02:27:07;;;;;;;16.97;12.77;;;4.70;99.90;;;;;;4988926;28;20268;-80
2022/03/28 02:29:34;;;;;;;15.07;12.20;;;4.80;99.90;;;;;;4983664;28;20205;-80
2022/03/28 02:32:03;;;;;;;14.23;12.23;;;4.80;99.90;;;;;;4986224;28;20746;-80
2022/03/28 02:34:30;;;;;;;14.20;11.80;;;4.80;99.90;;;;;;4991049;28;20206;-82
2022/03/28 02:36:57;;;;;;;14.43;12.07;;;4.90;99.90;;;;;;4987515;28;20218;-80
2022/03/28 02:39:23;;;;;;;16.10;12.53;;;4.90;99.90;;;;;;4988837;28;20260;-83
2022/03/28 02:41:50;;;;;;;17.57;12.60;;;4.90;99.90;;;;;;4981504;28;20206;-79
2022/03/28 02:44:18;;;;;;;18.03;13.17;;;4.80;99.90;;;;;;4975583;28;20249;-79
2022/03/28 02:46:45;;;;;;;15.53;13.03;;;4.80;99.90;;;;;;4977589;28;20301;-78
2022/03/28 02:49:14;;;;;;;15.67;11.87;;;4.70;99.90;;;;;;4977077;28;20194;-79
2022/03/28 02:51:41;;;;;;;15.20;12.47;;;4.70;99.90;;;;;;4978283;28;20684;-77
2022/03/28 02:54:08;;;;;;;16.30;12.60;;;4.70;99.90;;;;;;4972048;28;20277;-77
2022/03/28 02:56:35;;;;;;;17.03;12.50;;;4.60;99.90;;;;;;4974725;28;20284;-77
2022/03/28 02:59:02;;;;;;;13.73;11.30;;;4.60;99.90;;;;;;4974019;28;20212;-78
2022/03/28 03:01:29;;;;;;;18.63;12.43;;;4.50;99.90;;;;;;4974372;28;20615;-80
2022/03/28 03:03:56;;;;;;;18.03;12.77;;;4.50;99.90;;;;;;4972597;28;20199;-79
2022/03/28 03:06:24;;;;;;;14.20;11.70;;;4.40;99.90;;;;;;4975823;28;20221;-77
2022/03/28 03:08:51;;;;;;;15.07;12.60;;;4.40;99.90;;;;;;4977969;28;20252;-77
2022/03/28 03:11:18;;;;;;;14.07;11.37;;;4.40;99.90;;;;;;4982844;28;20206;-77
2022/03/28 03:13:46;;;;;;;16.23;12.27;;;4.30;99.90;;;;;;4990728;28;20198;-77
2022/03/28 03:16:13;;;;;;;15.77;10.90;;;4.30;99.90;;;;;;4984424;28;20312;-78
2022/03/28 03:18:40;;;;;;;15.83;12.97;;;4.30;99.90;;;;;;4991144;28;20692;-85
2022/03/28 03:21:07;;;;;;;14.63;12.20;;;4.30;99.90;;;;;;4994161;28;20293;-83
2022/03/28 03:23:36;;;;;;;14.37;12.53;;;4.30;99.90;;;;;;4986041;28;20194;-87
2022/03/28 03:26:03;;;;;;;16.20;12.00;;;4.30;99.90;;;;;;4992627;28;20456;-86
2022/03/28 03:28:30;;;;;;;15.57;11.80;;;4.20;99.90;;;;;;4993094;28;20589;-82
2022/03/28 03:30:57;;;;;;;13.43;11.10;;;4.10;99.90;;;;;;4988473;28;20262;-80
2022/03/28 03:33:24;;;;;;;17.40;12.57;;;4.10;99.90;;;;;;4990169;28;20193;-81
2022/03/28 03:35:51;;;;;;;15.03;11.97;;;4.10;99.90;;;;;;4989379;28;20607;-81
2022/03/28 03:38:18;;;;;;;14.17;11.43;;;4.10;99.90;;;;;;4989912;28;20221;-82
2022/03/28 03:40:46;;;;;;;18.57;12.93;;;4.00;99.90;;;;;;4987437;28;20193;-81
2022/03/28 03:43:13;;;;;;;16.73;13.90;;;3.90;99.90;;;;;;4985221;28;20670;-80
2022/03/28 03:45:40;;;;;;;17.50;14.30;;;3.90;99.90;;;;;;4987419;28;20202;-82
2022/03/28 03:48:07;;;;;;;16.00;13.87;;;3.90;99.90;;;;;;4989897;28;20202;-81
2022/03/28 03:50:35;;;;;;;17.23;13.43;;;3.90;99.90;;;;;;4992879;28;20198;-82
2022/03/28 03:53:02;;;;;;;21.30;13.10;;;3.80;99.90;;;;;;4992010;28;20193;-79
2022/03/28 03:55:28;;;;;;;15.43;12.30;;;3.80;99.90;;;;;;4992945;28;20228;-81
2022/03/28 03:57:57;;;;;;;17.07;13.40;;;3.90;99.90;;;;;;4990673;28;20214;-81
2022/03/28 04:00:24;;;;;;;18.10;13.37;;;3.90;99.90;;;;;;4987854;28;20444;-80
2022/03/28 04:02:51;;;;;;;16.43;13.30;;;3.90;99.90;;;;;;4988872;28;20202;-80
2022/03/28 04:05:18;;;;;;;18.03;14.13;;;3.90;99.90;;;;;;4991074;28;20233;-80
2022/03/28 04:07:45;;;;;;;14.40;12.30;;;3.90;99.90;;;;;;4988847;28;20564;-81
2022/03/28 04:10:12;;;;;;;15.87;12.40;;;3.80;99.90;;;;;;4991229;28;20252;-81
2022/03/28 04:12:39;;;;;;;17.60;13.10;;;3.80;99.90;;;;;;4990077;28;20458;-80
2022/03/28 04:15:10;;;;;;;16.63;12.33;;;3.80;99.90;;;;;;4994238;28;20222;-82
2022/03/28 04:17:42;;;;;;;18.27;13.63;;;3.80;99.90;;;;;;4980361;28;20494;-82
2022/03/28 04:20:10;;;;;;;15.07;11.77;;;3.90;99.90;;;;;;4989361;28;20198;-82
2022/03/28 04:22:37;;;;;;;18.93;13.10;;;3.90;99.90;;;;;;4982427;28;20229;-82
2022/03/28 04:25:04;;;;;;;14.90;12.13;;;3.90;99.90;;;;;;4991131;28;20437;-81
2022/03/28 04:27:31;;;;;;;14.97;12.93;;;3.90;99.90;;;;;;4991638;28;20253;-81
2022/03/28 04:29:58;;;;;;;18.23;12.70;;;4.00;99.90;;;;;;4989222;28;20611;-82
2022/03/28 04:32:26;;;;;;;16.20;12.90;;;4.00;99.90;;;;;;4991808;28;20193;-81
2022/03/28 04:34:53;;;;;;;15.03;12.20;;;4.10;99.90;;;;;;4990111;28;20205;-82
2022/03/28 04:37:20;;;;;;;15.10;12.43;;;4.10;99.90;;;;;;4988393;28;20761;-81
2022/03/28 04:39:47;;;;;;;16.53;12.40;;;4.10;99.90;;;;;;4989048;28;20456;-80
2022/03/28 04:42:14;;;;;;;16.73;13.30;;;4.10;99.90;;;;;;4991018;28;20277;-81
2022/03/28 04:44:41;;;;;;;14.90;11.87;;;4.00;99.90;;;;;;4990163;28;20206;-81
2022/03/28 04:47:08;;;;;;;14.80;12.80;;;4.00;99.90;;;;;;4990266;28;20217;-82
2022/03/28 04:49:37;;;;;;;16.20;12.27;;;4.00;99.90;;;;;;4985772;28;20539;-81
2022/03/28 04:52:04;;;;;;;13.77;11.87;;;4.00;99.90;;;;;;4990147;28;20441;-82
2022/03/28 04:54:31;;;;;;;13.00;10.77;;;4.00;99.90;;;;;;4997586;28;20481;-82
2022/03/28 04:56:58;;;;;;;12.87;11.37;;;4.00;99.90;;;;;;4990072;28;20265;-84
2022/03/28 04:59:25;;;;;;;15.50;11.70;;;4.00;99.90;;;;;;4998057;28;20229;-82
2022/03/28 05:01:52;;;;;;;13.27;10.97;;;4.00;99.90;;;;;;4991163;28;20202;-81
2022/03/28 05:04:19;;;;;;;13.40;12.00;;;4.00;99.90;;;;;;4993003;28;20544;-83
2022/03/28 05:06:47;;;;;;;14.83;11.77;;;4.00;99.90;;;;;;4988125;28;20603;-82
2022/03/28 05:09:14;;;;;;;16.30;12.13;;;4.00;99.90;;;;;;4987332;28;20455;-81
2022/03/28 05:11:41;;;;;;;18.67;12.97;;;4.00;99.90;;;;;;4991468;28;20217;-81
2022/03/28 05:14:08;;;;;;;15.80;13.10;;;4.00;99.90;;;;;;4990456;28;20445;-82
2022/03/28 05:16:35;;;;;;;18.20;14.00;;;4.00;99.90;;;;;;4989741;28;20225;-82
2022/03/28 05:19:02;;;;;;;16.47;12.97;;;4.00;99.90;;;;;;4990697;28;20232;-82
2022/03/28 05:21:29;;;;;;;18.07;13.37;;;4.00;99.90;;;;;;4993837;28;20228;-81
2022/03/28 05:23:58;;;;;;;15.20;12.43;;;4.00;99.90;;;;;;4983656;28;20599;-82
2022/03/28 05:26:26;;;;;;;13.73;12.20;;;4.10;99.90;;;;;;4992443;28;21032;-83
2022/03/28 05:28:53;;;;;;;15.70;12.43;;;4.10;99.90;;;;;;4990184;28;20213;-83
2022/03/28 05:31:20;;;;;;;15.83;12.90;;;4.20;99.90;;;;;;4999686;28;20451;-81
2022/03/28 05:33:47;;;;;;;18.13;13.03;;;4.20;99.90;;;;;;4982973;28;20484;-83
2022/03/28 05:36:14;;;;;;;15.63;13.27;;;4.20;99.90;;;;;;4990943;28;20621;-83
2022/03/28 05:38:42;;;;;;;19.20;14.10;;;4.30;99.90;;;;;;4986919;28;20200;-82
2022/03/28 05:41:10;;;;;;;15.87;13.63;;;4.40;99.90;;;;;;4992563;28;20216;-83
2022/03/28 05:43:38;;;;;;;16.53;12.97;;;4.40;99.90;;;;;;4975877;28;20193;-82
2022/03/28 05:46:06;;;;;;;18.70;13.40;;;4.50;99.90;;;;;;4993279;28;20218;-81
2022/03/28 05:48:33;;;;;;;14.70;12.00;;;4.50;99.90;;;;;;4990503;28;20273;-81
2022/03/28 05:51:01;;;;;;;19.27;14.27;;;4.60;99.90;;;;;;4991037;28;20228;-82
2022/03/28 05:53:28;;;;;;;17.37;12.90;;;4.80;99.90;;;;;;4981781;28;20579;-83
2022/03/28 05:55:55;;;;;;;17.47;13.13;;;5.00;99.90;;;;;;4988212;28;20224;-82
2022/03/28 05:58:24;;;;;;;22.57;13.50;;;5.20;99.90;;;;;;4997295;28;20665;-82
2022/03/28 06:00:52;;;;;;;20.00;12.50;;;5.40;99.90;;;;;;4992536;28;20193;-82
2022/03/28 06:03:19;;;;;;;15.33;11.33;;;5.60;99.90;;;;;;4988468;28;20205;-82
2022/03/28 06:05:46;;;;;;;16.03;11.43;;;5.90;99.90;;;;;;4992081;28;20194;-82
2022/03/28 06:08:13;;;;;;;16.50;10.80;;;6.10;99.90;;;;;;4990864;28;20198;-81
2022/03/28 06:10:40;;;;;;;14.77;11.87;;;6.30;99.90;;;;;;4991624;28;20197;-83
2022/03/28 06:13:07;;;;;;;17.00;13.07;;;6.60;99.90;;;;;;4990608;28;20204;-83
2022/03/28 06:15:37;;;;;;;15.57;12.90;;;6.80;99.90;;;;;;4985370;28;20197;-81
2022/03/28 06:18:04;;;;;;;18.93;14.07;;;7.00;99.90;;;;;;4987142;28;20260;-82
2022/03/28 06:20:32;;;;;;;14.03;10.07;;;7.10;99.90;;;;;;4992440;28;20516;-82
2022/03/28 06:22:59;;;;;;;20.27;13.13;;;7.30;99.90;;;;;;4991184;28;20198;-82
2022/03/28 06:25:26;;;;;;;14.07;10.70;;;7.40;99.90;;;;;;4991366;28;20215;-84
2022/03/28 06:27:53;;;;;;;14.60;10.77;;;7.70;99.90;;;;;;4990261;28;20221;-81
2022/03/28 06:30:19;;;;;;;16.00;11.57;;;7.90;99.90;;;;;;4992037;28;20218;-83
2022/03/28 06:32:48;;;;;;;15.77;11.27;;;8.10;99.90;;;;;;4987904;28;20203;-82
2022/03/28 06:35:15;;;;;;;15.57;11.70;;;8.20;99.90;;;;;;4985507;28;20252;-80
2022/03/28 06:37:42;;;;;;;16.43;11.97;;;8.30;99.90;;;;;;4997666;28;20229;-83
2022/03/28 06:40:10;;;;;;;16.97;11.57;;;8.30;99.90;;;;;;4989502;28;20201;-83
2022/03/28 06:42:37;;;;;;;17.23;11.10;;;8.50;99.90;;;;;;4986336;28;20291;-83
2022/03/28 06:45:05;;;;;;;14.93;10.73;;;8.60;99.90;;;;;;4993968;28;20215;-80
2022/03/28 06:47:31;;;;;;;15.73;11.07;;;8.70;99.90;;;;;;5008131;28;20223;-81
2022/03/28 06:50:00;;;;;;;18.10;11.83;;;8.80;99.90;;;;;;4992229;28;20190;-81
2022/03/28 06:52:27;;;;;;;15.57;11.33;;;8.90;99.90;;;;;;4994376;28;20209;-81
2022/03/28 06:54:54;;;;;;;14.73;10.27;;;9.00;99.90;;;;;;4993997;28;20193;-83
2022/03/28 06:57:21;;;;;;;16.77;11.40;;;9.20;99.90;;;;;;4993248;28;20255;-82
2022/03/28 06:59:47;;;;;;;16.73;11.10;;;9.40;99.90;;;;;;4991756;28;20198;-82
2022/03/28 07:02:14;;;;;;;14.23;10.43;;;9.60;99.90;;;;;;4996161;28;20201;-81
2022/03/28 07:04:41;;;;;;;17.70;10.57;;;9.80;99.50;;;;;;4992559;28;20210;-82
2022/03/28 07:07:10;;;;;;;15.37;10.20;;;10.00;99.40;;;;;;5003344;28;20225;-82
2022/03/28 07:09:36;;;;;;;19.47;12.00;;;10.20;99.30;;;;;;5005145;28;20189;-84
2022/03/28 07:12:05;;;;;;;14.80;11.20;;;10.50;98.60;;;;;;4993331;28;20206;-82
2022/03/28 07:14:32;;;;;;;15.43;10.27;;;10.80;98.30;;;;;;4989996;28;20308;-82
2022/03/28 07:16:59;;;;;;;17.67;11.43;;;11.10;97.90;;;;;;4991387;28;20217;-83
2022/03/28 07:19:26;;;;;;;21.80;12.30;;;11.50;97.60;;;;;;4988607;28;20198;-82
2022/03/28 07:21:54;;;;;;;22.80;12.40;;;11.90;96.80;;;;;;4991091;28;20665;-82
2022/03/28 07:24:22;;;;;;;18.73;12.77;;;12.10;96.50;;;;;;4993482;28;20205;-83
2022/03/28 07:26:49;;;;;;;17.97;12.73;;;12.10;96.40;;;;;;4991710;28;20217;-83
2022/03/28 07:29:17;;;;;;;19.83;12.37;;;12.60;96.10;;;;;;4993390;28;20291;-83
2022/03/28 07:31:44;;;;;;;18.03;12.97;;;13.10;95.70;;;;;;4995602;28;20200;-84
2022/03/28 07:36:55;;;;;;;16.37;11.67;;;13.70;94.50;;;;;;4991605;28;20213;-83
2022/03/28 07:39:24;;;;;;;18.07;10.80;;;14.00;93.40;;;;;;4989257;28;20202;-82
2022/03/28 07:41:53;;;;;;;19.00;11.60;;;14.20;93.40;;;;;;4990788;28;20193;-82
2022/03/28 07:44:20;;;;;;;16.97;11.83;;;14.30;93.50;;;;;;4992612;28;20692;-83
2022/03/28 07:46:48;;;;;;;21.20;12.83;;;14.50;92.60;;;;;;4995749;28;20214;-83
2022/03/28 07:49:16;;;;;;;21.20;12.97;;;14.50;92.40;;;;;;4993559;28;20206;-83
2022/03/28 07:51:43;;;;;;;16.43;11.27;;;14.70;92.70;;;;;;4992006;28;20237;-83
2022/03/28 07:54:11;;;;;;;16.57;11.47;;;14.90;93.10;;;;;;4993437;28;20201;-83
2022/03/28 07:56:40;;;;;;;17.93;11.80;;;15.30;92.40;;;;;;4987920;28;20223;-81
2022/03/28 07:59:07;;;;;;;18.53;11.43;;;15.30;92.70;;;;;;4993053;28;20220;-83
2022/03/28 08:01:34;;;;;;;17.33;11.33;;;15.80;92.30;;;;;;4991480;28;20211;-83
2022/03/28 08:04:01;;;;;;;22.53;12.93;;;16.00;91.90;;;;;;4982298;28;20208;-82
2022/03/28 08:06:28;;;;;;;17.60;12.10;;;16.10;92.00;;;;;;5018881;23;20235;-78
2022/03/28 08:08:55;;;;;;;18.93;11.97;;;16.40;91.90;;;;;;5004041;28;20280;-78
2022/03/28 08:11:22;;;;;;;21.40;12.73;;;16.60;91.30;;;;;;5002754;28;20252;-78
2022/03/28 08:13:50;;;;;;;17.20;11.40;;;16.80;90.70;;;;;;5002804;28;20208;-78
2022/03/28 08:16:17;;;;;;;18.83;11.60;;;16.90;90.90;;;;;;5003669;28;20232;-78
2022/03/28 08:18:44;;;;;;;17.00;11.20;;;17.00;91.00;;;;;;4999152;28;20281;-79
2022/03/28 08:21:11;;;;;;;15.47;9.80;;;17.10;90.20;;;;;;4998947;28;20262;-78
2022/03/28 08:23:38;;;;;;;15.03;10.30;;;17.30;89.90;;;;;;4993548;28;20288;-78
2022/03/28 08:26:05;;;;;;;14.53;10.03;;;17.30;88.40;;;;;;5002757;28;20194;-78
2022/03/28 08:28:31;;;;;;;17.53;10.83;;;17.30;88.20;;;;;;5002792;28;20699;-78
2022/03/28 08:31:00;;;;;;;19.67;11.73;;;17.40;89.70;;;;;;4997148;28;20212;-78
2022/03/28 08:33:26;;;;;;;15.43;11.40;;;17.50;89.50;;;;;;5004588;28;20268;-79
2022/03/28 08:35:54;;;;;;;17.93;10.70;;;17.50;90.10;;;;;;4996938;28;20204;-79
2022/03/28 08:38:21;;;;;;;15.73;10.93;;;17.60;90.10;;;;;;5000121;28;20305;-79
2022/03/28 08:40:48;;;;;;;14.90;10.37;;;18.00;89.40;;;;;;5002149;28;20201;-78
2022/03/28 08:43:19;;;;;;;14.77;10.87;;;18.40;87.90;;;;;;5002397;28;20666;-78
2022/03/28 08:45:46;;;;;;;15.70;11.07;;;18.50;87.40;;;;;;5002016;28;20695;-79
2022/03/28 08:48:15;;;;;;;15.17;11.07;;;18.60;87.80;;;;;;5006054;28;20211;-79
2022/03/28 08:50:44;;;;;;;19.37;12.33;;;18.80;86.30;;;;;;4999228;28;20224;-79
2022/03/28 08:53:12;;;;;;;13.07;10.80;;;19.00;85.40;;;;;;5002015;28;20203;-78
2022/03/28 08:55:40;;;;;;;15.27;10.87;;;18.90;87.10;;;;;;5005368;28;20210;-80
2022/03/28 08:58:07;;;;;;;15.40;10.87;;;19.00;84.40;;;;;;5003398;28;20227;-79
2022/03/28 09:00:34;;;;;;;17.90;11.40;;;18.90;85.60;;;;;;5001424;28;20210;-78
2022/03/28 09:03:01;;;;;;;17.83;12.17;;;18.90;86.10;;;;;;5006502;28;20617;-77
2022/03/28 09:05:33;;;;;;;17.83;11.97;;;18.80;85.70;;;;;;5003853;28;20207;-79
2022/03/28 09:08:02;;;;;;;20.83;11.70;;;19.10;83.90;;;;;;5005122;28;20236;-79
2022/03/28 09:10:32;;;;;;;20.70;13.87;;;19.40;83.30;;;;;;5006875;28;20215;-78
2022/03/28 09:13:01;;;;;;;19.37;12.40;;;19.70;82.40;;;;;;5005214;28;20211;-79
2022/03/28 09:15:42;;;;;;;20.83;13.27;;;19.70;82.60;;;;;;5001840;28;20207;-80
2022/03/28 09:18:19;;;;;;;22.23;16.20;;;19.70;82.30;;;;;;5002457;28;20224;-80
2022/03/28 09:20:50;;;;;;;19.57;14.53;;;19.80;84.10;;;;;;4997335;28;20275;-80
2022/03/28 09:23:44;;;;;;;19.07;16.30;;;20.00;82.60;;;;;;5003395;28;20221;-79
2022/03/28 09:26:16;;;;;;;18.17;15.00;;;20.60;81.90;;;;;;4990056;28;20640;-79
2022/03/28 09:28:49;;;;;;;17.07;14.33;;;21.00;79.20;;;;;;5002782;28;20255;-79
2022/03/28 09:31:21;;;;;;;16.97;14.27;;;21.40;79.10;;;;;;5003641;28;20212;-79
2022/03/28 09:34:09;;;;;;;19.53;15.67;;;21.60;77.70;;;;;;5002227;28;20644;-79
2022/03/28 09:36:47;;;;;;;19.67;14.83;;;21.70;79.20;;;;;;5001938;28;20713;-79
2022/03/28 09:39:17;;;;;;;20.03;15.33;;;21.80;78.20;;;;;;5004614;28;20196;-79
2022/03/28 09:41:46;;;;;;;20.90;15.07;;;22.10;77.10;;;;;;5001696;28;20604;-79
2022/03/28 09:44:14;;;;;;;22.20;17.17;;;22.00;76.60;;;;;;5003374;28;20288;-79
2022/03/28 09:46:41;;;;;;;18.73;14.27;;;22.00;76.30;;;;;;5000241;28;20897;-79
2022/03/28 09:52:11;;;;;;;20.67;15.47;;;22.40;75.00;;;;;;4995372;28;20271;-78
2022/03/28 09:54:52;;;;;;;16.83;13.90;;;22.20;74.80;;;;;;4993997;28;20657;-79
2022/03/28 09:57:23;;;;;;;20.00;15.67;;;22.30;76.10;;;;;;4999463;28;20720;-78
2022/03/28 09:59:50;;;;;;;18.63;14.63;;;22.40;73.90;;;;;;4999856;28;20678;-78
2022/03/28 10:02:20;;;;;;;15.27;13.73;;;22.50;72.80;;;;;;5000434;28;20260;-78
2022/03/28 10:04:49;;;;;;;23.50;15.60;;;22.50;74.20;;;;;;5000388;28;20576;-78
2022/03/28 10:07:17;;;;;;;18.03;14.37;;;22.50;72.70;;;;;;5001842;28;20604;-78
2022/03/28 10:09:44;;;;;;;16.57;14.67;;;22.50;74.20;;;;;;5002049;28;20618;-78
2022/03/28 10:12:11;;;;;;;17.30;13.70;;;22.40;72.20;;;;;;4999216;28;20197;-78
2022/03/28 10:14:38;;;;;;;15.87;13.97;;;22.40;73.80;;;;;;5002075;28;20201;-79
2022/03/28 10:17:07;;;;;;;15.33;12.87;;;22.50;72.60;;;;;;5003273;28;20266;-78
2022/03/28 10:19:37;;;;;;;17.60;13.50;;;22.40;72.60;;;;;;5000573;28;20658;-78
2022/03/28 10:22:09;;;;;;;18.53;13.97;;;22.40;72.50;;;;;;5006438;28;20287;-78
2022/03/28 10:24:38;;;;;;;18.30;13.80;;;22.40;71.80;;;;;;5004065;28;20239;-78
2022/03/28 10:27:06;;;;;;;18.17;14.57;;;22.50;70.70;;;;;;5003168;28;20271;-78
2022/03/28 10:29:38;;;;;;;15.87;11.53;;;22.40;70.70;;;;;;5008029;28;20212;-78
2022/03/28 10:32:09;;;;;;;16.40;11.57;;;22.30;71.50;;;;;;5000843;28;20666;-77
2022/03/28 10:34:48;;;;;;;14.57;11.10;;;22.20;70.90;;;;;;5001126;28;20206;-78
2022/03/28 10:37:40;;;;;;;18.47;13.63;;;22.20;70.80;;;;;;5006339;28;20590;-78
2022/03/28 10:40:34;;;;;;;17.60;14.23;;;22.20;69.50;;;;;;5000621;28;20208;-78
2022/03/28 10:43:06;;;;;;;18.57;15.23;;;22.00;69.90;;;;;;4986733;28;20254;-78
2022/03/28 10:45:35;;;;;;;17.50;14.33;;;21.90;71.00;;;;;;4999227;28;20207;-78
2022/03/28 10:48:03;;;;;;;17.33;14.70;;;21.90;69.30;;;;;;5000107;28;20221;-78
2022/03/28 10:50:32;;;;;;;16.87;12.50;;;21.80;70.60;;;;;;5007090;28;20658;-78
2022/03/28 10:53:10;;;;;;;14.90;13.03;;;21.80;69.30;;;;;;5005148;28;20255;-78
2022/03/28 10:55:43;;;;;;;18.10;14.07;;;21.70;63.50;;;;;;5004142;28;20260;-78
2022/03/28 10:58:29;;;;;;;16.10;12.90;;;21.60;65.30;;;;;;5004681;28;20283;-78
2022/03/28 11:01:19;;;;;;;15.77;12.97;;;21.40;65.70;;;;;;4998881;28;20658;-78
2022/03/28 11:03:48;;;;;;;14.17;12.03;;;21.50;65.40;;;;;;5003532;28;20709;-77
2022/03/28 11:06:17;;;;;;;15.10;13.13;;;21.50;64.90;;;;;;5004579;28;20544;-78
2022/03/28 11:08:45;;;;;;;17.90;14.50;;;21.40;64.60;;;;;;5001833;28;20208;-78
2022/03/28 11:11:21;;;;;;;15.90;13.50;;;21.40;65.70;;;;;;4990589;28;20236;-77
2022/03/28 11:14:01;;;;;;;16.07;13.20;;;21.40;66.00;;;;;;5007405;28;20267;-77
2022/03/28 11:16:44;;;;;;;17.37;12.90;;;21.20;64.30;;;;;;5003263;28;20267;-78
2022/03/28 11:19:35;;;;;;;16.03;13.27;;;21.10;63.80;;;;;;4996357;28;20535;-78
2022/03/28 11:22:09;;;;;;;13.43;11.83;;;21.10;64.90;;;;;;4987306;28;20205;-77
2022/03/28 11:24:47;;;;;;;15.63;12.77;;;21.10;64.30;;;;;;5004286;28;20193;-78
2022/03/28 11:27:17;;;;;;;16.93;12.60;;;21.10;63.00;;;;;;5004199;28;20209;-77
2022/03/28 11:29:45;;;;;;;15.83;13.23;;;21.10;63.20;;;;;;5004493;28;20217;-78
2022/03/28 11:32:13;;;;;;;14.30;12.80;;;21.10;63.40;;;;;;5003928;28;20188;-77
2022/03/28 11:34:40;;;;;;;14.50;12.60;;;21.20;64.40;;;;;;4999371;28;20262;-79
2022/03/28 11:37:08;;;;;;;18.97;13.07;;;21.20;64.00;;;;;;4998462;28;20228;-79
2022/03/28 11:39:56;;;;;;;14.90;13.07;;;21.20;62.70;;;;;;5005558;28;20279;-78
2022/03/28 11:42:27;;;;;;;13.83;12.00;;;21.10;62.10;;;;;;5003146;28;20336;-78
2022/03/28 11:44:55;;;;;;;13.20;11.80;;;21.10;63.20;;;;;;5004397;28;20189;-79
2022/03/28 11:47:23;;;;;;;14.53;11.83;;;21.20;63.50;;;;;;5004555;28;20235;-78
2022/03/28 11:49:54;;;;;;;14.30;12.20;;;21.20;62.40;;;;;;5003040;28;20692;-79
2022/03/28 11:52:21;;;;;;;14.87;12.33;;;21.20;62.10;;;;;;5000105;28;20693;-78
2022/03/28 11:54:49;;;;;;;18.00;12.77;;;21.10;60.00;;;;;;5003034;28;20614;-79
2022/03/28 12:00:24;;;;;;;15.17;12.87;;;21.00;61.20;;;;;;4974078;28;20209;-78
2022/03/28 12:02:53;;;;;;;14.37;12.37;;;21.00;60.40;;;;;;5005112;28;20212;-79
2022/03/28 12:05:27;;;;;;;15.93;12.50;;;21.00;59.80;;;;;;5004877;28;20262;-78
2022/03/28 12:07:54;;;;;;;15.13;12.93;;;21.00;59.40;;;;;;5003972;28;20216;-78
2022/03/28 12:10:24;;;;;;;13.80;12.33;;;21.00;58.90;;;;;;4998716;28;20856;-78
2022/03/28 12:12:53;;;;;;;15.93;12.77;;;21.00;58.40;;;;;;5001220;28;20200;-79
2022/03/28 12:15:28;;;;;;;14.60;12.90;;;21.00;59.10;;;;;;4997683;28;20678;-78
2022/03/28 12:17:57;;;;;;;17.57;12.30;;;21.00;59.10;;;;;;5006461;28;20216;-79
2022/03/28 12:20:26;;;;;;;14.73;12.00;;;21.00;59.30;;;;;;5001171;28;20680;-78
2022/03/28 12:22:53;;;;;;;13.70;11.83;;;21.10;58.80;;;;;;5003753;28;20189;-79
2022/03/28 12:25:24;;;;;;;12.90;11.60;;;21.10;58.00;;;;;;5004022;28;20204;-78
2022/03/28 12:27:57;;;;;;;15.07;12.90;;;21.10;58.40;;;;;;5002782;28;20216;-78
2022/03/28 12:30:27;;;;;;;15.60;13.23;;;21.00;58.60;;;;;;4999377;28;20640;-78
2022/03/28 12:32:55;;;;;;;15.30;12.30;;;21.00;59.40;;;;;;5001835;28;20192;-79
2022/03/28 12:35:23;;;;;;;14.87;12.87;;;21.00;59.30;;;;;;4998797;28;20272;-78
2022/03/28 12:38:00;;;;;;;14.87;13.27;;;21.00;60.50;;;;;;5000989;28;20243;-79
2022/03/28 12:40:29;;;;;;;15.70;12.40;;;21.00;60.50;;;;;;5005019;28;20284;-78
2022/03/28 12:42:58;;;;;;;15.50;12.40;;;20.90;59.50;;;;;;5004099;28;20239;-79
2022/03/28 12:45:26;;;;;;;15.23;11.53;;;20.90;60.30;;;;;;5002749;28;20292;-78
2022/03/28 12:47:57;;;;;;;12.00;10.73;;;21.00;60.80;;;;;;5003066;28;20272;-78
2022/03/28 12:50:26;;;;;;;12.13;10.67;;;21.00;60.30;;;;;;5000023;28;20641;-78